Time;durP1;ratioP1;P1;durP2;ratioP2;P2;SDS_P1;SDS_P2;PMS_P1;PMS_P2;Temp;Humidity;BMP_temperature;BMP_pressure;BME280_temperature;BME280_humidity;BME280_pressure;Samples;Min_cycle;Max_cycle;Signal;HPM_P1;HPM_P2
2022/09/17 00:00:57;;;;;;;6.80;2.57;;;;;;;;;;5071967;28;20234;-45
2022/09/17 00:03:25;;;;;;;7.73;2.20;;;;;;;;;;5072144;28;20219;-45
2022/09/17 00:05:59;;;;;;;8.17;2.40;;;;;;;;;;5071428;28;20570;-45
2022/09/17 00:08:25;;;;;;;9.07;2.47;;;;;;;;;;5071738;28;20579;-45
2022/09/17 00:10:51;;;;;;;8.30;2.53;;;;;;;;;;5072040;28;20196;-45
2022/09/17 00:13:17;;;;;;;7.00;1.77;;;;;;;;;;5071237;28;20204;-45
2022/09/17 00:15:43;;;;;;;8.07;2.90;;;;;;;;;;5071610;28;20206;-46
2022/09/17 00:18:10;;;;;;;8.00;2.30;;;;;;;;;;5071402;28;20696;-45
2022/09/17 00:20:39;;;;;;;8.40;2.20;;;;;;;;;;5071912;28;20286;-45
2022/09/17 00:23:05;;;;;;;10.10;2.77;;;;;;;;;;5071831;28;20277;-45
2022/09/17 00:25:31;;;;;;;11.50;2.50;;;;;;;;;;5071717;28;20705;-46
2022/09/17 00:27:57;;;;;;;6.50;2.00;;;;;;;;;;5071487;28;20195;-46
2022/09/17 00:30:23;;;;;;;6.33;2.10;;;;;;;;;;5071629;28;20249;-45
2022/09/17 00:32:52;;;;;;;9.33;2.67;;;;;;;;;;5069901;28;20568;-47
2022/09/17 00:35:18;;;;;;;11.37;2.70;;;;;;;;;;5070074;28;20199;-47
2022/09/17 00:37:45;;;;;;;8.37;2.20;;;;;;;;;;5070681;28;20196;-46
2022/09/17 00:40:11;;;;;;;10.07;2.67;;;;;;;;;;5070776;28;20196;-47
2022/09/17 00:42:37;;;;;;;7.17;2.37;;;;;;;;;;5071446;28;20202;-46
2022/09/17 00:45:04;;;;;;;9.13;2.67;;;;;;;;;;5071350;28;20743;-47
2022/09/17 00:47:31;;;;;;;10.10;2.83;;;;;;;;;;5071743;28;20597;-47
2022/09/17 00:49:59;;;;;;;7.40;2.40;;;;;;;;;;5071123;28;20231;-47
2022/09/17 00:52:26;;;;;;;9.10;2.53;;;;;;;;;;5070917;28;20202;-47
2022/09/17 00:54:57;;;;;;;10.53;2.60;;;;;;;;;;5071506;28;20274;-47
2022/09/17 00:57:24;;;;;;;9.97;2.83;;;;;;;;;;5070538;28;20214;-47
2022/09/17 00:59:50;;;;;;;6.07;2.20;;;;;;;;;;5070765;28;20199;-47
2022/09/17 01:02:16;;;;;;;9.03;2.37;;;;;;;;;;5071057;28;20200;-47
2022/09/17 01:04:42;;;;;;;9.93;2.87;;;;;;;;;;5071314;28;20323;-47
2022/09/17 01:07:11;;;;;;;10.47;2.90;;;;;;;;;;5071246;28;20210;-47
2022/09/17 01:09:41;;;;;;;9.07;2.50;;;;;;;;;;5071462;28;20572;-47
2022/09/17 01:12:15;;;;;;;10.17;2.87;;;;;;;;;;5071201;28;20290;-47
2022/09/17 01:14:51;;;;;;;14.97;3.20;;;;;;;;;;5071488;28;20199;-46
2022/09/17 01:17:21;;;;;;;10.57;3.00;;;;;;;;;;5071415;28;20195;-47
2022/09/17 01:20:06;;;;;;;6.77;2.40;;;;;;;;;;5071075;28;20272;-46
2022/09/17 01:22:33;;;;;;;7.20;2.40;;;;;;;;;;5071185;28;20215;-47
2022/09/17 01:25:05;;;;;;;10.03;2.80;;;;;;;;;;5073233;28;20705;-46
2022/09/17 01:27:50;;;;;;;8.10;2.60;;;;;;;;;;5074958;28;20294;-47
2022/09/17 01:30:22;;;;;;;9.93;2.70;;;;;;;;;;5074600;28;20215;-47
2022/09/17 01:32:53;;;;;;;7.90;2.60;;;;;;;;;;5074577;28;20204;-47
2022/09/17 01:35:20;;;;;;;7.67;2.93;;;;;;;;;;5075090;28;20610;-47
2022/09/17 01:37:49;;;;;;;12.07;2.90;;;;;;;;;;5075108;28;20195;-47
2022/09/17 01:40:17;;;;;;;9.00;2.93;;;;;;;;;;5074714;28;20302;-47
2022/09/17 01:42:47;;;;;;;10.07;3.40;;;;;;;;;;5075067;28;20200;-47
2022/09/17 01:45:16;;;;;;;13.90;3.70;;;;;;;;;;5074736;28;20314;-47
2022/09/17 01:47:44;;;;;;;10.30;2.73;;;;;;;;;;5074827;28;20654;-47
2022/09/17 01:50:16;;;;;;;9.87;3.23;;;;;;;;;;5074742;28;20202;-47
2022/09/17 01:52:43;;;;;;;12.43;3.07;;;;;;;;;;5074757;28;20290;-46
2022/09/17 01:55:10;;;;;;;10.67;2.90;;;;;;;;;;5074294;28;20199;-47
2022/09/17 01:57:40;;;;;;;14.07;3.23;;;;;;;;;;5074539;28;20800;-46
2022/09/17 02:00:09;;;;;;;8.47;3.23;;;;;;;;;;5074303;28;20204;-47
2022/09/17 02:02:37;;;;;;;9.37;3.30;;;;;;;;;;5074578;28;20218;-47
2022/09/17 02:05:05;;;;;;;11.37;3.07;;;;;;;;;;5074291;28;20764;-46
2022/09/17 02:07:36;;;;;;;9.90;3.00;;;;;;;;;;5074665;28;20226;-47
2022/09/17 02:10:06;;;;;;;9.70;3.33;;;;;;;;;;5072802;28;20208;-47
2022/09/17 02:12:35;;;;;;;9.10;3.03;;;;;;;;;;5072877;28;20249;-46
2022/09/17 02:15:02;;;;;;;11.27;3.03;;;;;;;;;;5074178;28;20191;-47
2022/09/17 02:17:31;;;;;;;9.90;2.53;;;;;;;;;;5074142;28;20191;-47
2022/09/17 02:19:58;;;;;;;13.30;2.93;;;;;;;;;;5074100;28;20200;-47
2022/09/17 02:22:27;;;;;;;9.57;2.83;;;;;;;;;;5074191;28;20598;-47
2022/09/17 02:24:59;;;;;;;10.67;2.97;;;;;;;;;;5073869;28;20231;-47
2022/09/17 02:27:30;;;;;;;13.50;3.37;;;;;;;;;;5073935;28;20199;-46
2022/09/17 02:29:56;;;;;;;10.43;2.63;;;;;;;;;;5073768;28;20200;-46
2022/09/17 02:32:23;;;;;;;9.90;2.93;;;;;;;;;;5073501;28;20211;-46
2022/09/17 02:34:49;;;;;;;13.70;3.33;;;;;;;;;;5073116;28;20670;-47
2022/09/17 02:37:16;;;;;;;11.03;3.03;;;;;;;;;;5072639;28;20214;-46
2022/09/17 02:39:42;;;;;;;11.27;3.10;;;;;;;;;;5073913;28;20196;-47
2022/09/17 02:42:16;;;;;;;12.77;3.00;;;;;;;;;;5073673;28;20245;-46
2022/09/17 02:44:53;;;;;;;7.10;2.20;;;;;;;;;;5073539;28;20728;-46
2022/09/17 02:47:28;;;;;;;12.80;3.40;;;;;;;;;;5073598;28;20227;-47
2022/09/17 02:50:01;;;;;;;16.00;3.47;;;;;;;;;;5073675;28;20202;-47
2022/09/17 02:52:35;;;;;;;8.73;2.83;;;;;;;;;;5073676;28;20199;-46
2022/09/17 02:55:05;;;;;;;15.60;3.17;;;;;;;;;;5073372;28;20199;-46
2022/09/17 02:57:36;;;;;;;7.63;2.70;;;;;;;;;;5073529;28;20209;-47
2022/09/17 03:00:07;;;;;;;10.83;2.53;;;;;;;;;;5073296;28;20203;-47
2022/09/17 03:02:35;;;;;;;9.20;2.67;;;;;;;;;;5073482;28;20215;-47
2022/09/17 03:05:01;;;;;;;11.70;3.03;;;;;;;;;;5073174;28;20219;-46
2022/09/17 03:07:28;;;;;;;12.73;3.17;;;;;;;;;;5073095;28;20224;-47
2022/09/17 03:09:54;;;;;;;13.20;3.47;;;;;;;;;;5073130;28;20203;-46
2022/09/17 03:12:20;;;;;;;11.93;3.07;;;;;;;;;;5073039;28;20565;-46
2022/09/17 03:14:48;;;;;;;11.73;2.80;;;;;;;;;;5073266;28;20274;-47
2022/09/17 03:17:14;;;;;;;12.50;2.77;;;;;;;;;;5072962;28;20204;-47
2022/09/17 03:19:40;;;;;;;9.70;2.53;;;;;;;;;;5073097;28;20647;-46
2022/09/17 03:22:06;;;;;;;11.47;2.60;;;;;;;;;;5072575;28;20206;-46
2022/09/17 03:24:32;;;;;;;13.10;3.20;;;;;;;;;;5072834;28;20759;-46
2022/09/17 03:26:58;;;;;;;10.07;3.03;;;;;;;;;;5073051;28;20203;-46
2022/09/17 03:29:24;;;;;;;14.93;2.90;;;;;;;;;;5072689;28;20253;-46
2022/09/17 03:31:51;;;;;;;10.13;2.43;;;;;;;;;;5072577;28;20201;-46
2022/09/17 03:34:18;;;;;;;15.13;3.17;;;;;;;;;;5072560;28;20211;-46
2022/09/17 03:36:44;;;;;;;9.53;3.40;;;;;;;;;;5072683;28;20204;-46
2022/09/17 03:39:10;;;;;;;10.03;2.80;;;;;;;;;;5072332;28;20642;-46
2022/09/17 03:41:36;;;;;;;10.17;2.90;;;;;;;;;;5072618;28;20274;-47
2022/09/17 03:44:02;;;;;;;13.87;3.10;;;;;;;;;;5072332;28;20303;-46
2022/09/17 03:46:28;;;;;;;9.83;2.73;;;;;;;;;;5071135;28;20211;-47
2022/09/17 03:48:55;;;;;;;9.30;2.43;;;;;;;;;;5071738;28;20196;-46
2022/09/17 03:51:21;;;;;;;8.67;2.67;;;;;;;;;;5071568;28;20214;-46
2022/09/17 03:53:47;;;;;;;8.33;2.43;;;;;;;;;;5071966;28;20200;-47
2022/09/17 03:56:13;;;;;;;11.23;2.93;;;;;;;;;;5071703;28;20573;-46
2022/09/17 03:58:39;;;;;;;8.23;2.60;;;;;;;;;;5071795;28;20199;-46
2022/09/17 04:01:05;;;;;;;11.07;2.90;;;;;;;;;;5071963;28;20235;-47
2022/09/17 04:03:32;;;;;;;10.93;3.03;;;;;;;;;;5071981;28;20562;-46
2022/09/17 04:05:59;;;;;;;9.90;2.60;;;;;;;;;;5072004;28;20248;-46
2022/09/17 04:08:25;;;;;;;10.03;2.97;;;;;;;;;;5072141;28;20254;-47
2022/09/17 04:10:51;;;;;;;8.00;2.33;;;;;;;;;;5072036;28;20222;-46
2022/09/17 04:13:18;;;;;;;11.87;3.00;;;;;;;;;;5071790;28;20196;-47
2022/09/17 04:15:44;;;;;;;11.90;2.80;;;;;;;;;;5071940;28;20199;-46
2022/09/17 04:18:11;;;;;;;9.83;3.10;;;;;;;;;;5071723;28;20249;-47
2022/09/17 04:20:37;;;;;;;16.00;2.87;;;;;;;;;;5071914;28;20199;-47
2022/09/17 04:23:06;;;;;;;9.30;2.90;;;;;;;;;;5071210;28;20758;-46
2022/09/17 04:25:32;;;;;;;13.17;4.43;;;;;;;;;;5070708;28;20227;-46
2022/09/17 04:27:58;;;;;;;13.10;3.10;;;;;;;;;;5070669;28;20576;-46
2022/09/17 04:30:24;;;;;;;18.07;3.77;;;;;;;;;;5070899;28;20195;-46
2022/09/17 04:32:50;;;;;;;8.97;2.87;;;;;;;;;;5070456;28;20238;-47
2022/09/17 04:35:16;;;;;;;9.50;2.73;;;;;;;;;;5070667;28;20466;-46
2022/09/17 04:37:42;;;;;;;10.23;3.13;;;;;;;;;;5070638;28;20564;-46
2022/09/17 04:40:10;;;;;;;15.67;3.13;;;;;;;;;;5071064;28;20199;-46
2022/09/17 04:42:36;;;;;;;9.63;2.97;;;;;;;;;;5071462;28;20667;-46
2022/09/17 04:45:02;;;;;;;12.30;2.87;;;;;;;;;;5071105;28;20226;-47
2022/09/17 04:47:28;;;;;;;10.20;3.23;;;;;;;;;;5071047;28;20541;-47
2022/09/17 04:49:54;;;;;;;12.10;2.63;;;;;;;;;;5070272;28;20290;-46
2022/09/17 04:52:20;;;;;;;9.43;2.90;;;;;;;;;;5071390;28;20287;-46
2022/09/17 04:54:46;;;;;;;11.53;3.10;;;;;;;;;;5071447;28;20187;-46
2022/09/17 04:57:13;;;;;;;10.80;2.80;;;;;;;;;;5071355;28;20226;-46
2022/09/17 04:59:39;;;;;;;10.97;2.70;;;;;;;;;;5071163;28;20196;-47
2022/09/17 05:02:05;;;;;;;11.50;3.50;;;;;;;;;;5071178;28;20576;-46
2022/09/17 05:04:31;;;;;;;12.40;4.00;;;;;;;;;;5071363;28;20227;-46
2022/09/17 05:06:57;;;;;;;13.20;3.37;;;;;;;;;;5071400;28;20234;-46
2022/09/17 05:09:23;;;;;;;10.73;2.83;;;;;;;;;;5071074;28;20203;-47
2022/09/17 05:11:49;;;;;;;12.83;2.83;;;;;;;;;;5071253;28;20195;-46
2022/09/17 05:14:16;;;;;;;12.33;3.50;;;;;;;;;;5070693;28;20559;-46
2022/09/17 05:16:42;;;;;;;10.87;3.23;;;;;;;;;;5070753;28;20307;-46
2022/09/17 05:19:08;;;;;;;12.53;3.00;;;;;;;;;;5071139;28;20195;-46
2022/09/17 05:21:34;;;;;;;11.43;2.67;;;;;;;;;;5071353;28;20205;-47
2022/09/17 05:24:00;;;;;;;14.17;3.17;;;;;;;;;;5071073;28;20302;-46
2022/09/17 05:26:26;;;;;;;11.37;2.67;;;;;;;;;;5071254;28;20223;-47
2022/09/17 05:28:52;;;;;;;12.57;3.23;;;;;;;;;;5071123;28;20249;-46
2022/09/17 05:31:19;;;;;;;10.77;3.17;;;;;;;;;;5070949;28;20207;-46
2022/09/17 05:33:45;;;;;;;16.57;3.20;;;;;;;;;;5070977;28;20666;-46
2022/09/17 05:36:11;;;;;;;9.53;2.80;;;;;;;;;;5071134;28;20202;-46
2022/09/17 05:38:37;;;;;;;11.10;3.20;;;;;;;;;;5070985;28;20593;-46
2022/09/17 05:41:05;;;;;;;12.90;3.70;;;;;;;;;;5070810;28;20731;-46
2022/09/17 05:43:31;;;;;;;13.37;2.90;;;;;;;;;;5070813;28;20204;-46
2022/09/17 05:46:00;;;;;;;9.57;2.20;;;;;;;;;;5070736;28;20755;-46
2022/09/17 05:48:27;;;;;;;13.40;3.00;;;;;;;;;;5070703;28;20552;-46
2022/09/17 05:50:54;;;;;;;12.03;3.50;;;;;;;;;;5070899;28;20204;-46
2022/09/17 05:53:20;;;;;;;13.00;2.73;;;;;;;;;;5070597;28;20287;-46
2022/09/17 05:55:46;;;;;;;8.60;3.07;;;;;;;;;;5070926;28;20245;-47
2022/09/17 05:58:12;;;;;;;16.73;3.77;;;;;;;;;;5070681;28;20642;-47
2022/09/17 06:00:40;;;;;;;13.67;3.20;;;;;;;;;;5070478;28;20600;-47
2022/09/17 06:03:06;;;;;;;10.00;3.00;;;;;;;;;;5070594;28;20559;-46
2022/09/17 06:05:33;;;;;;;12.90;3.03;;;;;;;;;;5070666;28;20232;-46
2022/09/17 06:07:59;;;;;;;9.40;3.20;;;;;;;;;;5070600;28;20223;-46
2022/09/17 06:10:25;;;;;;;10.70;3.40;;;;;;;;;;5071579;28;20282;-46
2022/09/17 06:12:55;;;;;;;13.77;2.67;;;;;;;;;;5074168;28;20223;-46
2022/09/17 06:15:21;;;;;;;11.77;2.67;;;;;;;;;;5073682;28;20199;-46
2022/09/17 06:17:47;;;;;;;12.90;2.97;;;;;;;;;;5073051;28;20249;-47
2022/09/17 06:20:14;;;;;;;8.27;3.00;;;;;;;;;;5074020;28;20227;-46
2022/09/17 06:22:42;;;;;;;14.57;3.03;;;;;;;;;;5074106;28;20199;-46
2022/09/17 06:25:08;;;;;;;14.03;2.93;;;;;;;;;;5073805;28;20230;-46
2022/09/17 06:27:34;;;;;;;12.00;3.57;;;;;;;;;;5073358;28;20206;-47
2022/09/17 06:30:00;;;;;;;11.23;2.83;;;;;;;;;;5073544;28;20192;-47
2022/09/17 06:32:26;;;;;;;9.80;3.17;;;;;;;;;;5074008;28;20203;-47
2022/09/17 06:34:54;;;;;;;7.57;2.73;;;;;;;;;;5073647;28;20200;-47
2022/09/17 06:37:20;;;;;;;9.87;2.80;;;;;;;;;;5073266;28;20627;-47
2022/09/17 06:39:48;;;;;;;9.37;3.00;;;;;;;;;;5072693;28;20562;-47
2022/09/17 06:42:14;;;;;;;8.40;2.73;;;;;;;;;;5073178;28;20223;-47
2022/09/17 06:44:40;;;;;;;9.10;2.50;;;;;;;;;;5072192;28;20219;-47
2022/09/17 06:47:06;;;;;;;9.97;2.80;;;;;;;;;;5073001;28;20691;-47
2022/09/17 06:49:32;;;;;;;8.03;2.80;;;;;;;;;;5072223;28;20196;-47
2022/09/17 06:51:58;;;;;;;11.13;2.73;;;;;;;;;;5073032;28;20632;-47
2022/09/17 06:54:24;;;;;;;7.03;2.47;;;;;;;;;;5073132;28;20195;-47
2022/09/17 06:56:52;;;;;;;10.27;3.00;;;;;;;;;;5072678;28;20692;-47
2022/09/17 06:59:18;;;;;;;8.97;2.67;;;;;;;;;;5072907;28;20678;-47
2022/09/17 07:01:44;;;;;;;13.40;3.10;;;;;;;;;;5072466;28;20636;-47
2022/09/17 07:04:11;;;;;;;8.63;3.10;;;;;;;;;;5072582;28;20234;-47
2022/09/17 07:06:37;;;;;;;10.87;2.83;;;;;;;;;;5072949;28;20578;-48
2022/09/17 07:09:03;;;;;;;10.50;2.77;;;;;;;;;;5073020;28;20204;-47
2022/09/17 07:11:30;;;;;;;11.77;2.70;;;;;;;;;;5071929;28;20196;-47
2022/09/17 07:13:57;;;;;;;7.00;2.47;;;;;;;;;;5072771;28;20222;-47
2022/09/17 07:16:25;;;;;;;8.37;2.40;;;;;;;;;;5072745;28;20454;-47
2022/09/17 07:18:51;;;;;;;11.00;3.20;;;;;;;;;;5072841;28;20199;-47
2022/09/17 07:21:19;;;;;;;12.13;3.07;;;;;;;;;;5071772;28;20246;-47
2022/09/17 07:23:45;;;;;;;8.07;2.40;;;;;;;;;;5072815;28;20196;-47
2022/09/17 07:26:12;;;;;;;7.90;2.50;;;;;;;;;;5072436;28;20697;-47
2022/09/17 07:28:38;;;;;;;9.43;2.93;;;;;;;;;;5072391;28;20290;-47
2022/09/17 07:31:06;;;;;;;10.80;3.40;;;;;;;;;;5071916;28;20207;-47
2022/09/17 07:33:33;;;;;;;10.80;2.23;;;;;;;;;;5072546;28;20341;-47
2022/09/17 07:36:00;;;;;;;10.00;2.87;;;;;;;;;;5072440;28;20225;-47
2022/09/17 07:38:26;;;;;;;10.97;2.97;;;;;;;;;;5072016;28;20689;-47
2022/09/17 07:40:54;;;;;;;12.77;2.83;;;;;;;;;;5072464;28;20302;-47
2022/09/17 07:43:20;;;;;;;8.70;2.50;;;;;;;;;;5072223;28;20199;-47
2022/09/17 07:45:46;;;;;;;10.47;3.07;;;;;;;;;;5072188;28;20276;-47
2022/09/17 07:48:13;;;;;;;11.27;3.10;;;;;;;;;;5072167;28;20257;-47
2022/09/17 07:50:39;;;;;;;12.20;3.83;;;;;;;;;;5072332;28;20199;-47
2022/09/17 07:53:05;;;;;;;8.40;2.73;;;;;;;;;;5072109;28;20210;-45
2022/09/17 07:55:31;;;;;;;7.83;2.10;;;;;;;;;;5072242;28;20211;-46
2022/09/17 07:57:57;;;;;;;12.43;3.00;;;;;;;;;;5071077;28;20192;-52
2022/09/17 08:00:24;;;;;;;7.97;2.73;;;;;;;;;;5071746;28;20333;-45
2022/09/17 08:02:53;;;;;;;9.87;2.87;;;;;;;;;;5072102;28;20226;-46
2022/09/17 08:05:20;;;;;;;10.10;3.00;;;;;;;;;;5072074;28;20220;-46
2022/09/17 08:07:48;;;;;;;9.13;2.43;;;;;;;;;;5071665;28;20559;-45
2022/09/17 08:10:14;;;;;;;7.13;2.67;;;;;;;;;;5071870;28;20198;-46
2022/09/17 08:12:40;;;;;;;6.53;2.17;;;;;;;;;;5071797;28;20204;-45
2022/09/17 08:15:07;;;;;;;8.50;3.00;;;;;;;;;;5071928;28;20196;-46
2022/09/17 08:17:33;;;;;;;8.80;2.60;;;;;;;;;;5071577;28;20570;-45
2022/09/17 08:19:59;;;;;;;8.70;2.50;;;;;;;;;;5071199;28;20196;-45
2022/09/17 08:22:26;;;;;;;7.80;2.40;;;;;;;;;;5071316;28;20309;-46
2022/09/17 08:24:52;;;;;;;12.40;2.60;;;;;;;;;;5071354;28;20602;-47
2022/09/17 08:27:18;;;;;;;16.93;2.90;;;;;;;;;;5071398;28;20682;-47
2022/09/17 08:29:44;;;;;;;8.77;2.80;;;;;;;;;;5071383;28;20293;-47
2022/09/17 08:32:11;;;;;;;11.70;3.10;;;;;;;;;;5071274;28;20206;-47
2022/09/17 08:34:37;;;;;;;7.80;2.20;;;;;;;;;;5071243;28;20214;-47
2022/09/17 08:37:03;;;;;;;10.77;2.23;;;;;;;;;;5071307;28;20410;-47
2022/09/17 08:39:30;;;;;;;6.67;2.50;;;;;;;;;;5071263;28;20203;-47
2022/09/17 08:42:01;;;;;;;7.37;2.70;;;;;;;;;;5071412;28;20207;-47
2022/09/17 08:44:31;;;;;;;11.77;2.43;;;;;;;;;;5071090;28;20689;-47
2022/09/17 08:46:59;;;;;;;8.03;2.57;;;;;;;;;;5070088;28;20575;-47
2022/09/17 08:49:30;;;;;;;13.20;2.50;;;;;;;;;;5071073;28;20196;-47
2022/09/17 08:52:02;;;;;;;10.87;3.00;;;;;;;;;;5070378;28;20249;-47
2022/09/17 08:54:32;;;;;;;10.77;2.37;;;;;;;;;;5070512;28;20195;-49
2022/09/17 08:57:08;;;;;;;5.57;2.17;;;;;;;;;;5070820;28;20204;-49
2022/09/17 08:59:37;;;;;;;10.00;2.40;;;;;;;;;;5070597;28;20202;-49
2022/09/17 09:02:14;;;;;;;8.43;2.87;;;;;;;;;;5070388;28;20231;-49
2022/09/17 09:04:49;;;;;;;8.37;2.23;;;;;;;;;;5070972;28;20299;-48
2022/09/17 09:07:17;;;;;;;7.23;2.40;;;;;;;;;;5071349;28;20260;-48
2022/09/17 09:09:46;;;;;;;7.37;2.50;;;;;;;;;;5071260;28;20195;-49
2022/09/17 09:12:17;;;;;;;5.47;2.30;;;;;;;;;;5070973;28;20198;-50
2022/09/17 09:14:48;;;;;;;9.57;2.70;;;;;;;;;;5071118;28;20204;-48
2022/09/17 09:17:17;;;;;;;10.87;2.57;;;;;;;;;;5071201;28;20200;-48
2022/09/17 09:19:44;;;;;;;7.10;2.20;;;;;;;;;;5069396;28;20205;-47
2022/09/17 09:22:14;;;;;;;8.17;2.20;;;;;;;;;;5071073;28;20245;-48
2022/09/17 09:24:41;;;;;;;7.33;2.70;;;;;;;;;;5070835;28;20801;-47
2022/09/17 09:27:16;;;;;;;7.43;2.37;;;;;;;;;;5070916;28;20201;-48
2022/09/17 09:29:47;;;;;;;9.43;2.70;;;;;;;;;;5071180;28;20562;-48
2022/09/17 09:32:17;;;;;;;5.83;2.00;;;;;;;;;;5069916;28;20206;-47
2022/09/17 09:34:44;;;;;;;6.80;2.60;;;;;;;;;;5071551;28;20237;-47
2022/09/17 09:37:14;;;;;;;8.83;2.63;;;;;;;;;;5071442;28;20194;-48
2022/09/17 09:39:40;;;;;;;8.73;2.10;;;;;;;;;;5071432;28;20194;-47
2022/09/17 09:42:10;;;;;;;7.77;2.53;;;;;;;;;;5071378;28;20208;-47
2022/09/17 09:44:37;;;;;;;6.67;2.77;;;;;;;;;;5070990;28;20212;-47
2022/09/17 09:47:11;;;;;;;8.47;2.87;;;;;;;;;;5074813;28;20195;-48
2022/09/17 09:49:45;;;;;;;5.27;2.40;;;;;;;;;;5075144;28;20210;-48
2022/09/17 09:52:16;;;;;;;8.17;2.13;;;;;;;;;;5074916;28;20267;-47
2022/09/17 09:54:47;;;;;;;8.30;3.00;;;;;;;;;;5075154;28;20199;-48
2022/09/17 09:57:14;;;;;;;6.40;2.30;;;;;;;;;;5074915;28;20464;-48
2022/09/17 09:59:40;;;;;;;6.70;2.60;;;;;;;;;;5074828;28;20202;-48
2022/09/17 10:02:08;;;;;;;10.60;2.37;;;;;;;;;;5074713;28;20238;-48
2022/09/17 10:04:34;;;;;;;8.10;2.20;;;;;;;;;;5075024;28;20288;-47
2022/09/17 10:07:04;;;;;;;9.47;2.60;;;;;;;;;;5074592;28;20232;-47
2022/09/17 10:09:31;;;;;;;9.07;2.50;;;;;;;;;;5072470;28;20782;-47
2022/09/17 10:12:02;;;;;;;8.10;2.47;;;;;;;;;;5074204;28;20199;-47
2022/09/17 10:14:29;;;;;;;11.40;2.70;;;;;;;;;;5073762;28;20659;-47
2022/09/17 10:17:13;;;;;;;7.90;2.40;;;;;;;;;;5073341;28;20205;-47
2022/09/17 10:19:40;;;;;;;4.63;2.20;;;;;;;;;;5072684;28;20581;-46
2022/09/17 10:22:18;;;;;;;7.70;2.30;;;;;;;;;;5074044;28;20204;-47
2022/09/17 10:24:44;;;;;;;4.07;2.10;;;;;;;;;;5073762;28;20226;-46
2022/09/17 10:27:12;;;;;;;5.87;2.30;;;;;;;;;;5073941;28;20196;-46
2022/09/17 10:29:42;;;;;;;7.27;2.40;;;;;;;;;;5073524;28;20870;-46
2022/09/17 10:32:13;;;;;;;7.57;2.63;;;;;;;;;;5073746;28;20321;-46
2022/09/17 10:34:41;;;;;;;5.33;2.10;;;;;;;;;;5073843;28;20220;-46
2022/09/17 10:37:30;;;;;;;8.40;2.30;;;;;;;;;;5073439;28;20204;-47
2022/09/17 10:39:56;;;;;;;7.57;2.13;;;;;;;;;;5073727;28;20221;-47
2022/09/17 10:42:22;;;;;;;9.17;2.47;;;;;;;;;;5069033;28;20601;-47
2022/09/17 10:44:52;;;;;;;8.60;2.43;;;;;;;;;;5073334;28;20223;-46
2022/09/17 10:47:21;;;;;;;5.17;2.50;;;;;;;;;;5073470;28;20280;-46
2022/09/17 10:49:49;;;;;;;7.53;2.13;;;;;;;;;;5073579;28;20268;-46
2022/09/17 10:52:23;;;;;;;8.67;2.60;;;;;;;;;;5072703;28;20199;-47
2022/09/17 10:54:53;;;;;;;6.57;1.70;;;;;;;;;;5072672;28;20206;-46
2022/09/17 10:57:24;;;;;;;10.17;2.30;;;;;;;;;;5072915;28;20199;-46
2022/09/17 10:59:55;;;;;;;5.73;2.23;;;;;;;;;;5072982;28;20558;-47
2022/09/17 11:02:41;;;;;;;12.57;2.37;;;;;;;;;;5072769;28;20187;-47
2022/09/17 11:05:19;;;;;;;13.43;2.37;;;;;;;;;;5072669;28;20250;-47
2022/09/17 11:07:52;;;;;;;5.67;2.53;;;;;;;;;;5072880;28;20234;-46
2022/09/17 11:10:22;;;;;;;8.27;2.10;;;;;;;;;;5073067;28;20604;-46
2022/09/17 11:12:55;;;;;;;5.47;1.93;;;;;;;;;;5072837;28;20253;-46
2022/09/17 11:15:26;;;;;;;7.60;2.30;;;;;;;;;;5072800;28;20191;-46
2022/09/17 11:18:01;;;;;;;7.73;2.00;;;;;;;;;;5073061;28;20192;-46
2022/09/17 11:20:37;;;;;;;11.10;2.47;;;;;;;;;;5073024;28;20196;-47
2022/09/17 11:23:09;;;;;;;3.87;1.70;;;;;;;;;;5072908;28;20211;-48
2022/09/17 11:25:42;;;;;;;7.03;1.73;;;;;;;;;;5072713;28;20237;-47
2022/09/17 11:28:13;;;;;;;7.77;1.90;;;;;;;;;;5072646;28;20652;-47
2022/09/17 11:30:48;;;;;;;7.43;2.00;;;;;;;;;;5072052;28;20202;-47
2022/09/17 11:33:21;;;;;;;4.10;1.60;;;;;;;;;;5072619;28;20197;-47
2022/09/17 11:35:51;;;;;;;4.07;1.50;;;;;;;;;;5073050;28;20195;-47
2022/09/17 11:38:20;;;;;;;4.40;1.53;;;;;;;;;;5072517;28;20207;-47
2022/09/17 11:40:48;;;;;;;4.63;1.63;;;;;;;;;;5072934;28;20196;-47
2022/09/17 11:43:21;;;;;;;7.13;1.90;;;;;;;;;;5073154;28;20222;-47
2022/09/17 11:45:51;;;;;;;5.70;1.73;;;;;;;;;;5072653;28;20234;-47
2022/09/17 11:48:19;;;;;;;5.63;1.60;;;;;;;;;;5072380;28;20195;-47
2022/09/17 11:50:47;;;;;;;4.00;1.47;;;;;;;;;;5072157;28;20198;-47
2022/09/17 11:53:19;;;;;;;6.33;1.80;;;;;;;;;;5072101;28;20396;-46
2022/09/17 11:55:47;;;;;;;6.43;1.70;;;;;;;;;;5072437;28;20200;-46
2022/09/17 11:58:15;;;;;;;4.97;1.70;;;;;;;;;;5072398;28;20238;-46
2022/09/17 12:00:44;;;;;;;6.20;1.90;;;;;;;;;;5072076;28;20333;-46
2022/09/17 12:03:13;;;;;;;5.93;2.30;;;;;;;;;;5072349;28;20823;-46
2022/09/17 12:05:41;;;;;;;6.40;2.03;;;;;;;;;;5072126;28;20265;-46
2022/09/17 12:08:10;;;;;;;7.20;2.10;;;;;;;;;;5071312;28;20273;-46
2022/09/17 12:10:40;;;;;;;6.87;2.20;;;;;;;;;;5071897;28;20218;-46
2022/09/17 12:13:12;;;;;;;5.83;2.13;;;;;;;;;;5072172;28;20252;-46
2022/09/17 12:15:40;;;;;;;9.83;2.47;;;;;;;;;;5072046;28;20661;-46
2022/09/17 12:18:13;;;;;;;4.93;1.80;;;;;;;;;;5071989;28;20199;-46
2022/09/17 12:20:41;;;;;;;7.67;2.10;;;;;;;;;;5071845;28;20203;-47
2022/09/17 12:23:10;;;;;;;4.23;1.73;;;;;;;;;;5071877;28;20191;-46
2022/09/17 12:25:39;;;;;;;7.77;2.20;;;;;;;;;;5071593;28;20310;-47
2022/09/17 12:28:09;;;;;;;7.80;2.20;;;;;;;;;;5071764;28;20303;-46
2022/09/17 12:30:37;;;;;;;6.80;2.20;;;;;;;;;;5071245;28;20201;-47
2022/09/17 12:33:15;;;;;;;7.93;2.40;;;;;;;;;;5071357;28;20201;-46
2022/09/17 12:36:05;;;;;;;7.47;2.13;;;;;;;;;;5071566;28;20203;-46
2022/09/17 12:38:45;;;;;;;5.20;1.83;;;;;;;;;;5071603;28;20290;-47
2022/09/17 12:41:15;;;;;;;3.97;1.80;;;;;;;;;;5071554;28;20265;-46
2022/09/17 12:44:04;;;;;;;4.03;1.70;;;;;;;;;;5071627;28;20230;-47
2022/09/17 12:46:38;;;;;;;6.90;2.20;;;;;;;;;;5071624;28;20230;-46
2022/09/17 12:49:25;;;;;;;4.30;1.63;;;;;;;;;;5071664;28;20196;-46
2022/09/17 12:51:53;;;;;;;5.60;1.83;;;;;;;;;;5071089;28;20191;-46
2022/09/17 12:54:24;;;;;;;5.30;1.50;;;;;;;;;;5071215;28;20203;-47
2022/09/17 12:56:57;;;;;;;4.07;1.87;;;;;;;;;;5071608;28;20542;-47
2022/09/17 12:59:25;;;;;;;3.87;1.30;;;;;;;;;;5070851;28;20215;-47
2022/09/17 13:01:53;;;;;;;2.77;1.30;;;;;;;;;;5071262;28;20238;-47
2022/09/17 13:04:30;;;;;;;3.77;1.47;;;;;;;;;;5071683;28;20191;-47
2022/09/17 13:07:04;;;;;;;3.30;1.50;;;;;;;;;;5071333;28;20210;-47
2022/09/17 13:09:43;;;;;;;3.63;1.57;;;;;;;;;;5071156;28;20203;-46
2022/09/17 13:12:14;;;;;;;3.80;1.50;;;;;;;;;;5071490;28;20203;-46
2022/09/17 13:14:53;;;;;;;5.90;1.50;;;;;;;;;;5071371;28;20210;-46
2022/09/17 13:17:24;;;;;;;4.70;1.60;;;;;;;;;;5071222;28;20215;-46
2022/09/17 13:19:53;;;;;;;5.17;1.60;;;;;;;;;;5072947;28;20193;-46
2022/09/17 13:22:20;;;;;;;4.03;1.70;;;;;;;;;;5074206;28;20287;-46
2022/09/17 13:24:47;;;;;;;2.87;1.30;;;;;;;;;;5074604;28;20230;-46
2022/09/17 13:27:21;;;;;;;3.47;1.70;;;;;;;;;;5075193;28;20290;-46
2022/09/17 13:30:00;;;;;;;3.03;1.47;;;;;;;;;;5075410;28;20192;-47
2022/09/17 13:32:41;;;;;;;5.60;1.83;;;;;;;;;;5075070;28;20286;-47
2022/09/17 13:35:22;;;;;;;5.60;2.00;;;;;;;;;;5075148;28;20274;-47
2022/09/17 13:37:54;;;;;;;4.43;1.40;;;;;;;;;;5074381;28;20219;-47
2022/09/17 13:40:21;;;;;;;4.77;2.03;;;;;;;;;;5074318;28;20732;-47
2022/09/17 13:42:50;;;;;;;2.73;1.67;;;;;;;;;;5074581;28;20219;-46
2022/09/17 13:45:17;;;;;;;2.83;1.70;;;;;;;;;;5074832;28;20227;-47
2022/09/17 13:47:49;;;;;;;3.73;1.90;;;;;;;;;;5074581;28;20203;-46
2022/09/17 13:50:25;;;;;;;6.30;2.37;;;;;;;;;;5074705;28;20200;-47
2022/09/17 13:52:52;;;;;;;4.77;1.50;;;;;;;;;;5074910;28;20256;-47
2022/09/17 13:55:33;;;;;;;4.00;1.70;;;;;;;;;;5074750;28;20250;-46
2022/09/17 13:58:02;;;;;;;3.50;1.60;;;;;;;;;;5074135;28;20203;-47
2022/09/17 14:00:48;;;;;;;3.83;1.83;;;;;;;;;;5074424;28;20796;-47
2022/09/17 14:03:33;;;;;;;4.80;1.63;;;;;;;;;;5074744;28;20256;-47
2022/09/17 14:06:23;;;;;;;4.17;1.73;;;;;;;;;;5074531;28;20603;-47
2022/09/17 14:08:50;;;;;;;5.13;1.70;;;;;;;;;;5074206;28;20230;-48
2022/09/17 14:11:32;;;;;;;7.67;2.20;;;;;;;;;;5074586;28;20576;-47
2022/09/17 14:14:20;;;;;;;5.53;1.60;;;;;;;;;;5074248;28;20557;-47
2022/09/17 14:16:49;;;;;;;4.73;1.80;;;;;;;;;;5074262;28;20192;-47
2022/09/17 14:19:28;;;;;;;8.53;1.73;;;;;;;;;;5074401;28;20203;-47
2022/09/17 14:21:59;;;;;;;5.97;1.63;;;;;;;;;;5074111;28;20203;-47
2022/09/17 14:24:26;;;;;;;7.13;2.27;;;;;;;;;;5074153;28;20219;-47
2022/09/17 14:26:57;;;;;;;5.80;2.03;;;;;;;;;;5073897;28;20237;-47
2022/09/17 14:29:33;;;;;;;5.67;1.80;;;;;;;;;;5073953;28;20192;-47
2022/09/17 14:31:59;;;;;;;6.53;2.17;;;;;;;;;;5073064;28;20658;-47
2022/09/17 14:34:26;;;;;;;4.17;1.70;;;;;;;;;;5073634;28;20550;-47
2022/09/17 14:36:53;;;;;;;3.67;1.70;;;;;;;;;;5073590;28;20608;-47
2022/09/17 14:39:21;;;;;;;6.53;1.70;;;;;;;;;;5072490;28;20203;-47
2022/09/17 14:41:47;;;;;;;6.47;1.73;;;;;;;;;;5074209;28;20202;-47
2022/09/17 14:44:15;;;;;;;4.77;1.87;;;;;;;;;;5074238;28;20200;-47
2022/09/17 14:46:43;;;;;;;5.23;2.30;;;;;;;;;;5073864;28;20276;-47
2022/09/17 14:49:18;;;;;;;4.83;1.70;;;;;;;;;;5074044;28;20245;-47